Time;durP1;ratioP1;P1;durP2;ratioP2;P2;SDS_P1;SDS_P2;PMS_P1;PMS_P2;Temp;Humidity;BMP_temperature;BMP_pressure;BME280_temperature;BME280_humidity;BME280_pressure;Samples;Min_cycle;Max_cycle;Signal;HPM_P1;HPM_P2
2022/07/16 00:04:00;;;;;;;3.60;2.05;;;;;;;14.12;71.03;102028.06;5030876;28;20060;-85
2022/07/16 00:06:27;;;;;;;4.38;2.38;;;;;;;14.12;72.14;102021.72;5025346;28;20148;-85
2022/07/16 00:08:54;;;;;;;3.97;1.92;;;;;;;14.14;72.45;102014.31;4993186;28;20120;-85
2022/07/16 00:11:20;;;;;;;5.15;2.15;;;;;;;14.20;72.91;102025.69;5009589;28;20492;-85
2022/07/16 00:13:46;;;;;;;5.53;2.20;;;;;;;14.24;73.28;102021.75;4992687;28;20026;-84
2022/07/16 00:16:12;;;;;;;3.28;2.20;;;;;;;14.32;71.95;102031.31;5005427;28;20456;-85
2022/07/16 00:21:24;;;;;;;3.20;2.45;;;;;;;14.42;71.24;102030.56;5010397;28;20037;-84
2022/07/16 00:23:50;;;;;;;6.28;2.60;;;;;;;14.41;72.64;102030.66;5025847;28;20038;-85
2022/07/16 00:26:17;;;;;;;4.53;2.17;;;;;;;14.42;72.81;102032.44;5018640;28;20081;-85
2022/07/16 00:28:42;;;;;;;3.45;2.30;;;;;;;14.37;72.31;102034.59;4995062;28;20029;-85
2022/07/16 00:31:07;;;;;;;4.25;2.30;;;;;;;14.26;72.42;102019.78;5027631;28;20039;-84
2022/07/16 00:33:33;;;;;;;2.63;1.88;;;;;;;14.35;73.68;102037.44;5010759;28;20067;-85
2022/07/16 00:36:00;;;;;;;3.88;2.38;;;;;;;14.36;72.76;102032.81;5016074;28;20069;-85
2022/07/16 00:38:25;;;;;;;5.80;2.17;;;;;;;14.41;72.17;102041.59;4992887;28;20519;-85
2022/07/16 00:40:51;;;;;;;2.90;2.03;;;;;;;14.45;72.46;102033.06;5010462;28;20073;-85
2022/07/16 00:43:16;;;;;;;3.40;2.15;;;;;;;14.44;72.72;102031.31;5021990;28;20052;-85
2022/07/16 00:45:42;;;;;;;3.90;2.17;;;;;;;14.49;72.47;102031.03;5024251;28;20091;-85
2022/07/16 00:48:08;;;;;;;3.15;2.28;;;;;;;14.58;72.15;102035.00;5025299;28;20478;-85
2022/07/16 00:50:36;;;;;;;4.25;2.45;;;;;;;14.62;73.06;102031.06;5007903;28;20044;-85
2022/07/16 00:53:02;;;;;;;4.68;2.88;;;;;;;14.65;73.40;102025.38;5009451;28;20030;-85
2022/07/16 00:55:28;;;;;;;5.22;2.88;;;;;;;14.68;73.14;102027.88;5020875;28;20202;-85
2022/07/16 00:57:55;;;;;;;3.40;2.65;;;;;;;14.72;73.72;102029.41;5013326;28;20041;-85
2022/07/16 01:00:21;;;;;;;5.22;2.92;;;;;;;14.74;71.56;102031.06;5010357;28;20057;-84
2022/07/16 01:02:49;;;;;;;4.22;2.80;;;;;;;14.77;72.18;102022.63;5028383;28;20044;-85
2022/07/16 01:05:15;;;;;;;3.70;2.90;;;;;;;14.79;73.73;102023.41;5027840;28;20049;-85
2022/07/16 01:07:41;;;;;;;7.10;2.95;;;;;;;14.83;73.15;102017.69;5028162;28;20436;-85
2022/07/16 01:10:07;;;;;;;3.55;2.38;;;;;;;14.88;72.96;102021.00;5029798;28;20033;-85
2022/07/16 01:12:33;;;;;;;3.08;2.28;;;;;;;14.92;72.27;102022.50;5023028;28;20025;-84
2022/07/16 01:14:59;;;;;;;4.00;2.60;;;;;;;14.92;73.08;102022.50;5023812;28;20420;-86
2022/07/16 01:17:24;;;;;;;6.90;2.40;;;;;;;14.96;72.38;102021.28;5008552;28;20440;-85
2022/07/16 01:19:50;;;;;;;6.15;2.40;;;;;;;14.95;72.98;102016.81;5007782;28;20041;-85
2022/07/16 01:22:20;;;;;;;3.20;2.50;;;;;;;14.88;73.23;102008.16;5024697;28;20049;-84
2022/07/16 01:24:47;;;;;;;4.95;2.80;;;;;;;14.88;73.09;102012.78;5008182;28;20129;-85
2022/07/16 01:27:13;;;;;;;6.95;2.80;;;;;;;14.86;72.98;102015.59;5008674;28;20092;-85
2022/07/16 01:29:38;;;;;;;4.30;2.58;;;;;;;14.83;73.46;102010.38;5005601;28;20061;-85
2022/07/16 01:32:04;;;;;;;4.50;2.70;;;;;;;14.78;72.94;102007.03;5025327;28;20030;-85
2022/07/16 01:34:31;;;;;;;5.20;2.90;;;;;;;14.78;72.91;102023.47;5009475;28;20028;-84
2022/07/16 01:36:59;;;;;;;4.63;2.80;;;;;;;14.80;72.44;102021.53;5024379;28;20038;-85
2022/07/16 01:39:25;;;;;;;4.05;2.65;;;;;;;14.76;72.46;102020.00;5008070;28;20045;-85
2022/07/16 01:41:53;;;;;;;7.90;3.00;;;;;;;14.78;71.37;102027.13;5021841;28;20033;-85
2022/07/16 01:44:18;;;;;;;4.03;2.83;;;;;;;14.77;71.46;102029.97;5025904;28;20041;-84
2022/07/16 01:46:44;;;;;;;4.00;2.88;;;;;;;14.78;71.49;102023.47;5019096;28;20388;-85
2022/07/16 01:49:09;;;;;;;3.85;2.83;;;;;;;14.78;70.03;102027.13;5027808;28;20095;-85
2022/07/16 01:51:35;;;;;;;6.00;3.58;;;;;;;14.85;70.92;102037.66;5007263;28;20488;-85
2022/07/16 01:54:00;;;;;;;5.45;2.92;;;;;;;14.81;70.11;102020.53;5009248;28;20076;-86
2022/07/16 01:56:25;;;;;;;4.57;3.42;;;;;;;14.83;69.71;102029.53;4991796;28;20045;-84
2022/07/16 01:58:51;;;;;;;6.57;3.45;;;;;;;14.85;69.43;102018.47;5011838;28;20045;-85
2022/07/16 02:01:16;;;;;;;5.40;3.75;;;;;;;14.82;69.04;102026.88;5010621;28;20443;-85
2022/07/16 02:03:41;;;;;;;3.97;3.33;;;;;;;14.81;70.05;102023.28;4991166;28;20034;-84
2022/07/16 02:06:07;;;;;;;4.75;3.75;;;;;;;14.76;69.01;102020.88;5007486;28;20058;-84
2022/07/16 02:08:32;;;;;;;7.07;3.42;;;;;;;14.76;68.70;102015.38;5024574;28;20129;-85
2022/07/16 02:10:57;;;;;;;5.88;3.15;;;;;;;14.78;69.50;102013.44;5023841;28;20080;-84
2022/07/16 02:13:23;;;;;;;6.97;3.50;;;;;;;14.80;69.21;102014.19;5007659;28;20117;-84
2022/07/16 02:15:48;;;;;;;7.30;4.00;;;;;;;14.80;69.46;102013.31;5007155;28;20045;-85
2022/07/16 02:18:13;;;;;;;6.07;3.90;;;;;;;14.87;68.75;102016.47;5023847;28;20049;-85
2022/07/16 02:20:39;;;;;;;7.30;4.35;;;;;;;14.86;69.45;102010.13;5022891;28;20045;-85
2022/07/16 02:23:05;;;;;;;8.68;3.97;;;;;;;14.87;68.61;102011.88;5007723;28;20155;-84
2022/07/16 02:25:30;;;;;;;8.10;3.85;;;;;;;14.88;68.77;102005.44;4991469;28;20021;-86
2022/07/16 02:28:05;;;;;;;6.15;3.95;;;;;;;14.92;68.93;102017.03;4995223;28;20040;-85
2022/07/16 02:30:32;;;;;;;9.02;4.32;;;;;;;14.95;68.67;102009.47;5007635;28;20395;-85
2022/07/16 02:32:57;;;;;;;4.93;4.10;;;;;;;14.94;68.73;102002.22;5007023;28;20042;-84
2022/07/16 02:35:23;;;;;;;6.95;4.45;;;;;;;15.00;68.49;102004.50;4991128;28;20036;-83
2022/07/16 02:37:48;;;;;;;10.43;4.97;;;;;;;14.97;68.57;101993.81;4990676;28;20396;-85
2022/07/16 02:40:14;;;;;;;6.20;3.90;;;;;;;15.05;67.97;102002.31;5007255;28;20036;-84
2022/07/16 02:42:39;;;;;;;7.13;4.60;;;;;;;15.07;68.10;102004.97;4989452;28;20108;-85
2022/07/16 02:45:07;;;;;;;7.95;4.30;;;;;;;15.03;68.16;102001.56;5022615;28;20044;-85
2022/07/16 02:47:33;;;;;;;6.90;4.40;;;;;;;15.07;67.99;102006.84;5024176;28;20397;-87
2022/07/16 02:49:59;;;;;;;7.65;4.18;;;;;;;15.05;67.75;101999.56;5002626;28;20397;-84
2022/07/16 02:52:24;;;;;;;7.72;4.80;;;;;;;15.05;67.95;101996.84;5028267;28;20043;-85
2022/07/16 02:54:49;;;;;;;7.45;4.30;;;;;;;15.07;69.41;102002.22;5026568;28;20048;-85
2022/07/16 02:57:15;;;;;;;6.43;4.22;;;;;;;15.04;68.32;101999.69;5020394;28;20018;-85
2022/07/16 02:59:40;;;;;;;7.80;4.32;;;;;;;15.01;68.71;101999.91;5018056;28;20037;-84
2022/07/16 03:02:06;;;;;;;5.97;4.60;;;;;;;15.05;68.44;102004.19;5008144;28;20100;-85
2022/07/16 03:04:32;;;;;;;8.02;4.50;;;;;;;15.09;68.04;102010.31;5023413;28;20109;-85
2022/07/16 03:06:57;;;;;;;7.22;4.78;;;;;;;15.10;68.54;102007.47;5005086;28;20416;-85
2022/07/16 03:09:22;;;;;;;6.07;4.18;;;;;;;15.11;67.44;102002.84;5007333;28;20536;-85
2022/07/16 03:11:48;;;;;;;8.23;4.20;;;;;;;15.12;67.84;102011.00;5005238;28;20029;-84
2022/07/16 03:14:13;;;;;;;8.57;4.30;;;;;;;15.12;67.71;102012.84;5022900;28;20081;-85
2022/07/16 03:16:38;;;;;;;8.00;4.95;;;;;;;15.11;67.46;102013.81;5006146;28;20069;-85
2022/07/16 03:19:04;;;;;;;6.82;4.55;;;;;;;15.12;68.31;102012.84;4990474;28;20456;-84
2022/07/16 03:21:29;;;;;;;7.18;4.65;;;;;;;15.09;67.83;102013.06;5021431;28;20049;-85
2022/07/16 03:23:54;;;;;;;6.22;4.15;;;;;;;15.08;67.46;102006.72;5026264;28;20334;-84
2022/07/16 03:26:20;;;;;;;6.38;4.43;;;;;;;15.03;67.80;102007.03;5009533;28;20034;-85
2022/07/16 03:28:45;;;;;;;6.40;4.28;;;;;;;14.96;67.88;101994.75;5014830;28;20376;-85
2022/07/16 03:31:11;;;;;;;8.05;4.25;;;;;;;15.05;67.58;102012.41;5021577;28;20103;-85
2022/07/16 03:33:36;;;;;;;8.70;4.72;;;;;;;15.07;67.36;102015.94;5006492;28;20389;-85
2022/07/16 03:36:01;;;;;;;8.18;4.38;;;;;;;15.00;68.36;102017.34;5005667;28;20053;-85
2022/07/16 03:41:11;;;;;;;8.90;4.45;;;;;;;15.03;68.81;102033.59;5007797;28;20323;-84
2022/07/16 03:43:36;;;;;;;5.88;4.75;;;;;;;15.00;69.29;102031.91;5005821;28;20037;-84
2022/07/16 03:46:02;;;;;;;6.47;4.72;;;;;;;15.00;68.65;102034.66;5007152;28;20029;-85
2022/07/16 03:48:27;;;;;;;7.90;4.57;;;;;;;15.01;68.19;102036.44;5006211;28;20030;-84
2022/07/16 03:50:52;;;;;;;7.55;4.80;;;;;;;15.06;68.78;102036.06;5007473;28;20033;-84
2022/07/16 03:53:18;;;;;;;10.05;4.35;;;;;;;15.06;68.75;102036.06;4989959;28;20030;-85
2022/07/16 03:55:43;;;;;;;9.60;5.13;;;;;;;15.05;69.04;102043.44;5021418;28;20045;-85
2022/07/16 03:58:08;;;;;;;10.63;5.43;;;;;;;15.09;69.23;102043.22;5005725;28;20058;-85
2022/07/16 04:00:34;;;;;;;8.23;4.57;;;;;;;15.08;68.63;102044.22;5013048;28;20402;-85
2022/07/16 04:02:59;;;;;;;9.57;4.90;;;;;;;15.11;69.19;102049.44;5006003;28;20089;-84
2022/07/16 04:05:24;;;;;;;6.47;4.70;;;;;;;15.11;68.64;102050.34;5025000;28;20051;-84
2022/07/16 04:07:50;;;;;;;6.43;4.50;;;;;;;15.12;69.57;102048.50;5009230;28;20040;-84
2022/07/16 04:10:16;;;;;;;11.10;5.00;;;;;;;15.15;69.21;102056.47;5025891;28;20376;-84
2022/07/16 04:12:41;;;;;;;13.07;5.60;;;;;;;15.14;69.83;102047.38;5023180;28;20045;-87
2022/07/16 04:15:07;;;;;;;5.22;4.20;;;;;;;15.15;69.95;102051.84;5024213;28;20146;-85
2022/07/16 04:17:32;;;;;;;8.20;4.70;;;;;;;15.22;69.83;102055.06;5026344;28;20132;-85
2022/07/16 04:19:58;;;;;;;9.38;5.13;;;;;;;15.24;70.12;102051.19;5005427;28;20676;-85
2022/07/16 04:22:23;;;;;;;8.20;4.53;;;;;;;15.31;69.72;102058.00;5022051;28;20033;-84
2022/07/16 04:24:49;;;;;;;7.43;4.88;;;;;;;15.34;70.16;102067.88;4991326;28;20113;-84
2022/07/16 04:27:14;;;;;;;7.93;4.78;;;;;;;15.35;70.86;102057.78;5025789;28;20036;-84
2022/07/16 04:29:39;;;;;;;7.53;4.50;;;;;;;15.36;70.51;102065.88;5021311;28;20033;-85
2022/07/16 04:32:05;;;;;;;8.38;4.65;;;;;;;15.36;70.84;102065.00;5010184;28;20445;-86
2022/07/16 04:34:32;;;;;;;8.60;5.07;;;;;;;15.34;72.96;102072.47;5009715;28;20386;-86
2022/07/16 04:36:58;;;;;;;11.05;4.93;;;;;;;15.34;71.23;102076.09;5011249;28;20486;-85
2022/07/16 04:39:23;;;;;;;10.23;5.00;;;;;;;15.30;72.53;102072.69;5012734;28;20037;-84
2022/07/16 04:41:49;;;;;;;6.60;4.78;;;;;;;15.28;72.83;102073.78;5027796;28;20095;-86
2022/07/16 04:44:14;;;;;;;8.60;4.78;;;;;;;15.27;72.26;102075.66;5014366;28;20038;-84
2022/07/16 04:46:39;;;;;;;7.32;5.00;;;;;;;15.27;72.83;102077.53;4992623;28;20057;-84
2022/07/16 04:49:05;;;;;;;8.30;4.32;;;;;;;15.27;73.10;102078.41;5025777;28;20034;-85
2022/07/16 04:51:31;;;;;;;9.07;4.47;;;;;;;15.26;73.17;102076.66;5024113;28;20079;-85
2022/07/16 04:53:56;;;;;;;7.50;4.65;;;;;;;15.23;73.49;102076.84;5024440;28;20057;-85
2022/07/16 04:56:21;;;;;;;9.68;4.70;;;;;;;15.24;73.76;102081.34;5009165;28;20025;-86
2022/07/16 04:58:47;;;;;;;13.50;5.25;;;;;;;15.25;75.86;102080.38;5008288;28;20069;-84
2022/07/16 05:01:12;;;;;;;9.32;4.63;;;;;;;15.29;75.01;102086.50;5012097;28;20377;-85
2022/07/16 05:03:37;;;;;;;8.35;4.30;;;;;;;15.28;76.46;102088.38;5008232;28;20509;-85
2022/07/16 05:06:03;;;;;;;6.75;4.57;;;;;;;15.32;76.62;102089.91;5017026;28;20080;-85
2022/07/16 05:08:28;;;;;;;9.65;4.88;;;;;;;15.35;77.21;102094.31;5000884;28;20046;-85
2022/07/16 05:10:53;;;;;;;10.93;5.00;;;;;;;15.38;77.59;102095.94;5025443;28;20385;-85
2022/07/16 05:13:19;;;;;;;7.32;4.20;;;;;;;15.41;77.53;102091.09;5014668;28;20037;-86
2022/07/16 05:15:44;;;;;;;10.63;5.50;;;;;;;15.44;78.33;102093.63;5019174;28;20037;-86
2022/07/16 05:18:11;;;;;;;7.47;4.35;;;;;;;15.46;78.85;102088.91;5028286;28;20045;-87
2022/07/16 05:20:36;;;;;;;11.25;4.57;;;;;;;15.49;79.18;102096.91;5024202;28;20061;-86
2022/07/16 05:23:02;;;;;;;7.82;5.10;;;;;;;15.52;78.94;102102.16;5010116;28;20030;-87
2022/07/16 05:25:27;;;;;;;12.02;5.00;;;;;;;15.55;79.92;102107.44;4992513;28;20030;-85
2022/07/16 05:27:52;;;;;;;8.38;4.38;;;;;;;15.60;80.32;102111.72;5007488;28;20034;-86
2022/07/16 05:30:18;;;;;;;9.15;4.38;;;;;;;15.67;78.72;102115.78;5007341;28;20394;-86
2022/07/16 05:32:44;;;;;;;7.55;4.32;;;;;;;15.71;80.40;102111.81;5008237;28;20132;-87
2022/07/16 05:35:12;;;;;;;11.02;4.00;;;;;;;15.77;77.68;102112.25;5008260;28;20054;-86
2022/07/16 05:37:38;;;;;;;7.07;4.18;;;;;;;15.83;81.02;102119.16;5009779;28;20045;-88
2022/07/16 05:40:04;;;;;;;7.30;4.32;;;;;;;15.88;81.42;102119.69;5010111;28;20030;-87
2022/07/16 05:42:29;;;;;;;8.70;3.75;;;;;;;15.93;81.01;102122.06;4990644;28;20473;-88
2022/07/16 05:44:55;;;;;;;6.00;3.70;;;;;;;15.97;81.75;102123.59;5021926;28;20633;-87
2022/07/16 05:47:20;;;;;;;7.85;3.60;;;;;;;16.04;80.23;102122.13;5027512;28;20041;-87
2022/07/16 05:49:46;;;;;;;9.00;3.08;;;;;;;16.08;81.05;102126.41;5016076;28;20133;-87
2022/07/16 05:52:11;;;;;;;5.20;2.78;;;;;;;16.13;80.34;102115.06;5007655;28;20037;-88
2022/07/16 05:54:37;;;;;;;5.15;3.20;;;;;;;16.21;79.66;102120.88;4991870;28;20022;-86
2022/07/16 05:57:02;;;;;;;7.65;2.70;;;;;;;16.24;79.06;102116.03;5008124;28;20046;-87
2022/07/16 05:59:28;;;;;;;4.28;2.47;;;;;;;16.29;78.83;102123.94;5008301;28;20311;-87
2022/07/16 06:01:53;;;;;;;6.63;2.40;;;;;;;16.33;78.66;102117.22;5007670;28;20069;-87
2022/07/16 06:04:18;;;;;;;3.92;2.30;;;;;;;16.37;78.83;102126.97;5024262;28;20067;-87
2022/07/16 06:06:44;;;;;;;8.75;2.47;;;;;;;16.41;78.04;102136.69;5024147;28;20128;-86
2022/07/16 06:09:09;;;;;;;4.95;2.35;;;;;;;16.41;76.80;102144.06;5009996;28;20066;-86
2022/07/16 06:11:34;;;;;;;5.93;2.38;;;;;;;16.43;76.88;102145.72;5009835;28;20033;-86
2022/07/16 06:14:00;;;;;;;5.70;2.13;;;;;;;16.49;76.81;102141.63;5023178;28;20025;-87
2022/07/16 06:16:25;;;;;;;6.45;2.13;;;;;;;16.54;76.18;102150.38;5025827;28;20030;-88
2022/07/16 06:18:51;;;;;;;5.30;2.20;;;;;;;16.57;76.68;102145.53;5025154;28;20496;-86
2022/07/16 06:21:16;;;;;;;5.18;2.25;;;;;;;16.64;76.66;102156.91;5022392;28;20186;-86
2022/07/16 06:23:41;;;;;;;3.53;2.22;;;;;;;16.68;76.29;102154.81;5022475;28;20041;-88
2022/07/16 06:26:07;;;;;;;5.00;2.05;;;;;;;16.73;76.86;102160.84;5008684;28;20052;-86
2022/07/16 06:28:32;;;;;;;8.82;2.28;;;;;;;16.77;75.65;102163.25;5006805;28;20041;-89
2022/07/16 06:30:57;;;;;;;8.07;2.00;;;;;;;16.80;75.10;102162.16;5022420;28;20087;-87
2022/07/16 06:33:23;;;;;;;3.80;2.38;;;;;;;16.85;74.94;102170.03;5008222;28;21152;-87
2022/07/16 06:35:48;;;;;;;3.63;1.95;;;;;;;16.95;75.00;102176.56;5028262;28;20073;-84
2022/07/16 06:38:14;;;;;;;4.60;1.98;;;;;;;17.09;75.14;102177.22;5016907;28;20468;-87
2022/07/16 06:40:43;;;;;;;1.98;1.23;;;;;;;17.17;72.39;102176.63;5028542;28;20091;-87
2022/07/16 06:43:09;;;;;;;3.60;1.58;;;;;;;17.20;71.29;102184.63;5023209;28;20065;-87
2022/07/16 06:45:34;;;;;;;2.88;1.42;;;;;;;17.19;71.24;102182.88;5010178;28;20037;-87
2022/07/16 06:48:00;;;;;;;2.70;1.35;;;;;;;17.16;69.84;102185.91;5011376;28;20087;-87
2022/07/16 06:50:25;;;;;;;4.55;1.60;;;;;;;17.16;70.90;102191.41;5024165;28;20495;-87
2022/07/16 06:52:51;;;;;;;4.00;1.75;;;;;;;17.14;68.32;102187.88;5026715;28;20038;-84
2022/07/16 06:55:16;;;;;;;2.53;1.17;;;;;;;17.19;69.71;102184.75;5028252;28;20029;-87
2022/07/16 06:57:41;;;;;;;3.83;1.70;;;;;;;17.24;70.02;102197.13;5009902;28;20040;-86
2022/07/16 07:00:07;;;;;;;2.15;1.27;;;;;;;17.28;67.39;102192.28;5015000;28;20068;-87
2022/07/16 07:02:34;;;;;;;3.05;1.13;;;;;;;17.33;67.72;102199.16;5012068;28;20113;-87
2022/07/16 07:04:59;;;;;;;4.00;1.30;;;;;;;17.35;67.11;102210.06;5008901;28;20475;-87
2022/07/16 07:07:25;;;;;;;4.18;0.85;;;;;;;17.40;65.51;102215.22;5024781;28;20133;-88
2022/07/16 07:09:50;;;;;;;1.80;1.05;;;;;;;17.41;65.84;102211.44;5025693;28;20036;-87
2022/07/16 07:12:15;;;;;;;1.73;1.00;;;;;;;17.47;66.29;102210.94;5026149;28;20041;-87
2022/07/16 07:14:41;;;;;;;5.53;1.20;;;;;;;17.54;64.53;102217.72;5023092;28;20572;-88
2022/07/16 07:17:06;;;;;;;2.03;1.27;;;;;;;17.59;64.15;102219.09;5011644;28;20034;-86
2022/07/16 07:19:32;;;;;;;3.60;1.27;;;;;;;17.65;66.98;102217.72;5027855;28;20090;-85
2022/07/16 07:21:57;;;;;;;4.40;1.13;;;;;;;17.70;64.87;102218.22;4999064;28;20037;-86
2022/07/16 07:24:22;;;;;;;3.75;1.10;;;;;;;17.80;64.91;102232.16;5029618;28;20025;-86
2022/07/16 07:26:48;;;;;;;5.10;1.30;;;;;;;17.94;66.05;102231.03;5011582;28;20155;-87
2022/07/16 07:29:13;;;;;;;6.20;1.30;;;;;;;18.01;62.72;102233.19;5010988;28;20106;-87
2022/07/16 07:31:38;;;;;;;2.90;1.25;;;;;;;17.98;63.04;102235.28;5027105;28;20045;-86
2022/07/16 07:34:04;;;;;;;1.83;1.00;;;;;;;17.92;62.31;102231.19;5028947;28;20116;-86
2022/07/16 07:36:29;;;;;;;2.90;1.30;;;;;;;17.92;63.08;102228.41;5023327;28;20041;-88
2022/07/16 07:38:55;;;;;;;3.55;1.50;;;;;;;17.98;64.75;102229.78;5028092;28;20037;-87
2022/07/16 07:41:20;;;;;;;3.17;1.30;;;;;;;18.05;63.04;102234.69;5011559;28;20041;-87
2022/07/16 07:43:45;;;;;;;3.30;1.08;;;;;;;18.11;64.02;102241.56;5008961;28;20512;-89
2022/07/16 07:46:11;;;;;;;3.63;1.13;;;;;;;18.15;61.47;102231.19;5007227;28;20373;-88
2022/07/16 07:48:37;;;;;;;6.18;1.48;;;;;;;18.19;62.47;102244.56;5009667;28;20038;-87
2022/07/16 07:51:03;;;;;;;2.67;1.10;;;;;;;18.24;62.38;102244.19;5024476;28;20022;-87
2022/07/16 07:53:29;;;;;;;2.47;1.30;;;;;;;18.27;61.63;102244.78;5024867;28;20045;-85
2022/07/16 07:55:54;;;;;;;3.90;1.40;;;;;;;18.29;60.54;102244.69;5008856;28;20022;-86
2022/07/16 07:58:20;;;;;;;5.43;1.00;;;;;;;18.31;62.55;102242.66;5015752;28;20420;-86
2022/07/16 08:00:45;;;;;;;4.78;1.50;;;;;;;18.40;63.35;102249.28;5033665;28;20083;-86
2022/07/16 08:03:11;;;;;;;1.67;1.15;;;;;;;18.48;62.38;102244.91;5012189;28;20049;-87
2022/07/16 08:05:37;;;;;;;6.60;1.30;;;;;;;18.60;61.97;102254.00;5012227;28;20477;-85
2022/07/16 08:08:02;;;;;;;5.32;1.65;;;;;;;18.70;63.43;102257.78;5012852;28;20033;-86
2022/07/16 08:10:28;;;;;;;4.10;1.35;;;;;;;18.79;62.13;102253.34;5013850;28;20034;-86
2022/07/16 08:12:53;;;;;;;2.67;1.23;;;;;;;19.13;61.15;102262.41;5013589;28;20032;-87
2022/07/16 08:15:18;;;;;;;3.95;1.30;;;;;;;19.31;58.06;102259.94;5024339;28;20065;-86
2022/07/16 08:17:44;;;;;;;4.47;1.33;;;;;;;19.59;58.78;102266.66;4995516;28;20038;-86
2022/07/16 08:20:10;;;;;;;2.53;1.20;;;;;;;20.22;59.31;102264.69;5015944;28;20072;-87
2022/07/16 08:22:35;;;;;;;4.55;1.15;;;;;;;21.09;57.17;102278.75;5015536;28;20040;-85
2022/07/16 08:27:45;;;;;;;5.60;1.20;;;;;;;21.70;53.43;102272.03;5010290;28;20038;-86
2022/07/16 08:30:10;;;;;;;2.08;1.10;;;;;;;22.22;52.44;102283.56;5026675;28;20087;-89
2022/07/16 08:32:36;;;;;;;3.90;1.40;;;;;;;22.11;51.33;102278.22;5028786;28;20465;-87
2022/07/16 08:35:03;;;;;;;3.80;1.20;;;;;;;22.07;49.36;102283.16;5011854;28;20045;-86
2022/07/16 08:37:41;;;;;;;2.70;1.20;;;;;;;22.14;50.11;102291.78;5011444;28;20428;-88
2022/07/16 08:40:10;;;;;;;2.67;0.93;;;;;;;21.93;47.91;102291.97;5015147;28;20121;-85
2022/07/16 08:42:36;;;;;;;3.33;1.75;;;;;;;22.06;49.75;102299.97;5012394;28;20045;-86
2022/07/16 08:45:04;;;;;;;4.85;1.40;;;;;;;22.64;50.85;102295.03;5026785;28;20120;-89
2022/07/16 08:47:30;;;;;;;7.47;1.25;;;;;;;23.17;48.80;102290.63;5027955;28;20044;-88
2022/07/16 08:49:58;;;;;;;3.05;1.35;;;;;;;23.24;46.68;102290.88;5009627;28;20461;-87
2022/07/16 08:52:27;;;;;;;3.10;1.25;;;;;;;23.41;46.40;102296.44;5012142;28;20034;-89
2022/07/16 08:54:53;;;;;;;4.22;1.15;;;;;;;23.45;45.51;102309.97;5026527;28;20410;-86
2022/07/16 08:57:19;;;;;;;4.15;1.10;;;;;;;23.52;46.29;102306.41;5025985;28;20048;-85
2022/07/16 08:59:45;;;;;;;3.33;1.20;;;;;;;23.76;44.40;102302.97;5023800;28;20110;-87
2022/07/16 09:02:14;;;;;;;4.22;1.10;;;;;;;23.47;43.83;102299.59;4994229;28;20183;-87
2022/07/16 09:04:41;;;;;;;2.63;1.60;;;;;;;23.71;44.54;102310.94;5010937;28;20061;-87
2022/07/16 09:07:06;;;;;;;3.10;1.48;;;;;;;23.61;46.05;102315.69;5010453;28;20049;-86
2022/07/16 09:09:32;;;;;;;4.57;1.08;;;;;;;24.13;47.51;102312.97;5030970;28;20476;-87
2022/07/16 09:11:58;;;;;;;1.90;1.20;;;;;;;24.99;46.98;102317.53;5012458;28;20138;-86
2022/07/16 09:14:23;;;;;;;2.90;1.20;;;;;;;24.88;42.73;102318.75;5009564;28;20064;-85
2022/07/16 09:16:52;;;;;;;2.65;0.98;;;;;;;24.72;40.65;102318.69;5026011;28;20481;-86
2022/07/16 09:19:20;;;;;;;1.35;1.02;;;;;;;24.23;41.01;102316.50;5010970;28;20041;-86
2022/07/16 09:22:06;;;;;;;3.03;1.10;;;;;;;24.15;45.64;102320.13;5027319;28;20030;-86
2022/07/16 09:24:48;;;;;;;3.42;1.30;;;;;;;23.89;42.42;102316.47;5030996;28;20610;-86
2022/07/16 09:27:17;;;;;;;3.40;1.17;;;;;;;24.04;45.43;102317.59;5029214;28;20577;-86
2022/07/16 09:29:50;;;;;;;2.13;1.05;;;;;;;23.63;44.29;102324.72;5005520;28;20014;-87
2022/07/16 09:32:45;;;;;;;4.43;1.10;;;;;;;23.75;46.23;102326.25;5030022;28;20136;-85
2022/07/16 09:35:13;;;;;;;3.00;1.35;;;;;;;23.80;45.98;102320.22;5014920;28;20049;-86
2022/07/16 09:37:56;;;;;;;2.45;1.08;;;;;;;23.91;45.76;102320.81;5013128;28;20110;-86
2022/07/16 09:40:31;;;;;;;3.05;1.20;;;;;;;23.86;43.34;102327.91;5030857;28;20037;-87
2022/07/16 09:42:57;;;;;;;5.22;1.05;;;;;;;23.76;41.02;102329.91;5010909;28;20473;-87
2022/07/16 09:45:22;;;;;;;4.82;1.27;;;;;;;23.40;42.80;102321.56;5008513;28;20072;-87
2022/07/16 09:47:48;;;;;;;7.03;1.13;;;;;;;23.92;45.77;102333.69;5009804;28;20033;-85
2022/07/16 09:50:14;;;;;;;2.47;1.05;;;;;;;24.18;41.65;102333.69;5019494;28;20042;-86
2022/07/16 09:52:40;;;;;;;2.35;1.10;;;;;;;24.64;43.91;102341.78;5011701;28;21858;-85
2022/07/16 09:55:07;;;;;;;5.18;1.10;;;;;;;24.29;38.22;102348.34;5028131;28;20178;-85
2022/07/16 09:57:33;;;;;;;1.88;0.95;;;;;;;24.20;38.23;102350.19;5022082;28;20496;-86
2022/07/16 09:59:59;;;;;;;3.42;0.90;;;;;;;24.39;40.85;102346.38;5010261;28;20045;-87
2022/07/16 10:02:25;;;;;;;3.90;1.02;;;;;;;24.80;40.76;102343.75;5011065;28;20117;-87
2022/07/16 10:04:51;;;;;;;2.25;0.90;;;;;;;25.07;39.90;102351.00;5009463;28;20038;-85
2022/07/16 10:07:17;;;;;;;1.10;0.90;;;;;;;25.15;39.04;102360.28;5010047;28;20038;-86
2022/07/16 10:09:43;;;;;;;1.98;1.40;;;;;;;25.34;39.56;102355.44;5008627;28;20352;-86
2022/07/16 10:12:19;;;;;;;4.90;1.40;;;;;;;25.35;38.70;102354.41;5006540;28;20026;-88
2022/07/16 10:14:46;;;;;;;3.55;1.20;;;;;;;24.83;36.69;102374.94;5003466;28;20775;-86
2022/07/16 10:17:13;;;;;;;4.45;1.40;;;;;;;24.48;39.79;102359.28;5024145;28;20061;-86
2022/07/16 10:19:39;;;;;;;2.63;1.25;;;;;;;24.74;39.56;102359.22;5028070;28;20042;-86
2022/07/16 10:22:14;;;;;;;4.57;1.13;;;;;;;24.75;38.57;102360.97;5027689;28;20048;-89
2022/07/16 10:24:52;;;;;;;4.00;0.98;;;;;;;24.24;37.29;102367.44;5028241;28;20120;-86
2022/07/16 10:27:26;;;;;;;6.35;1.15;;;;;;;24.15;38.19;102367.41;5022946;28;20117;-85
2022/07/16 10:30:13;;;;;;;2.42;1.10;;;;;;;24.18;40.37;102371.75;5007805;28;20118;-85
2022/07/16 10:33:00;;;;;;;3.90;1.23;;;;;;;24.10;40.67;102367.00;5009422;28;20048;-86
2022/07/16 10:35:33;;;;;;;2.40;0.95;;;;;;;24.41;39.02;102369.31;5021860;28;20482;-86
2022/07/16 10:38:22;;;;;;;2.67;1.02;;;;;;;24.87;39.17;102369.91;4991859;28;20551;-86
2022/07/16 10:41:08;;;;;;;5.38;1.17;;;;;;;25.36;40.28;102381.22;5009543;28;20044;-85
2022/07/16 10:43:35;;;;;;;3.10;0.98;;;;;;;25.86;37.08;102372.75;5009069;28;20046;-85
2022/07/16 10:46:03;;;;;;;2.15;1.13;;;;;;;25.65;40.45;102364.91;5006903;28;20033;-86
2022/07/16 10:48:38;;;;;;;6.68;1.48;;;;;;;25.68;39.09;102377.59;5026941;28;20556;-85
2022/07/16 10:51:22;;;;;;;22.30;4.03;;;;;;;25.53;38.35;102371.84;5026810;28;20033;-85
2022/07/16 10:53:57;;;;;;;31.27;5.00;;;;;;;25.28;38.32;102397.94;5027232;28;20044;-86
2022/07/16 10:56:36;;;;;;;3.05;1.30;;;;;;;24.64;38.13;102392.75;5009629;28;20041;-87
2022/07/16 10:59:03;;;;;;;3.25;1.42;;;;;;;24.41;39.72;102386.88;4990562;28;20481;-85
2022/07/16 11:01:29;;;;;;;3.28;1.00;;;;;;;23.79;38.79;102377.72;5008604;28;20038;-86
2022/07/16 11:03:54;;;;;;;6.25;1.48;;;;;;;23.80;42.63;102393.34;5023942;28;20128;-85
2022/07/16 11:06:23;;;;;;;9.90;1.75;;;;;;;24.12;40.07;102392.75;5008862;28;20038;-85
2022/07/16 11:08:53;;;;;;;5.88;1.52;;;;;;;24.87;41.54;102379.13;5007120;28;20499;-85
2022/07/16 11:11:19;;;;;;;4.68;1.10;;;;;;;25.64;38.24;102385.44;5024630;28;20041;-87
2022/07/16 11:13:47;;;;;;;4.60;1.13;;;;;;;25.53;36.20;102383.00;5013359;28;20030;-85
2022/07/16 11:16:12;;;;;;;1.92;1.30;;;;;;;25.79;37.49;102379.22;5008121;28;20044;-86
2022/07/16 11:18:38;;;;;;;5.32;1.05;;;;;;;26.13;39.01;102399.44;5007716;28;20124;-83
2022/07/16 11:21:06;;;;;;;5.95;1.00;;;;;;;26.03;39.22;102395.94;5013175;28;20037;-84
2022/07/16 11:23:55;;;;;;;4.40;1.50;;;;;;;25.78;38.58;102395.06;5007697;28;20289;-86
2022/07/16 11:26:22;;;;;;;4.30;1.13;;;;;;;25.74;39.33;102389.97;5019712;28;20523;-86
2022/07/16 11:29:00;;;;;;;8.85;1.63;;;;;;;25.85;39.32;102384.97;5028005;28;20113;-86
2022/07/16 11:31:33;;;;;;;2.55;1.08;;;;;;;26.64;39.69;102394.47;5006491;28;20041;-86
2022/07/16 11:34:03;;;;;;;4.53;1.50;;;;;;;26.90;37.96;102387.72;5023024;28;20091;-85